Time;durP1;ratioP1;P1;durP2;ratioP2;P2;SDS_P1;SDS_P2;PMS_P1;PMS_P2;Temp;Humidity;BMP_temperature;BMP_pressure;BME280_temperature;BME280_humidity;BME280_pressure;Samples;Min_cycle;Max_cycle;Signal;HPM_P1;HPM_P2
2022/04/07 00:01:17;;;;;;;2.83;1.70;;;8.90;99.90;;;;;;5077260;28;20176;-46
2022/04/07 00:03:43;;;;;;;4.03;1.47;;;9.00;99.90;;;;;;5077444;28;20175;-44
2022/04/07 00:06:12;;;;;;;1.43;1.23;;;9.00;99.90;;;;;;5076044;28;20608;-45
2022/04/07 00:08:38;;;;;;;1.33;1.23;;;9.10;99.90;;;;;;5077167;28;20203;-45
2022/04/07 00:11:04;;;;;;;1.47;0.97;;;9.20;99.90;;;;;;5077424;28;20653;-45
2022/04/07 00:13:29;;;;;;;1.20;1.10;;;9.30;99.90;;;;;;5077261;28;20190;-46
2022/04/07 00:15:56;;;;;;;1.20;1.10;;;9.30;99.90;;;;;;5076905;28;20284;-44
2022/04/07 00:18:22;;;;;;;1.67;1.00;;;9.30;99.90;;;;;;5076989;28;20192;-45
2022/04/07 00:20:48;;;;;;;3.43;1.77;;;9.30;99.90;;;;;;5076338;28;20172;-46
2022/04/07 00:23:14;;;;;;;1.80;0.93;;;9.30;99.90;;;;;;5077544;28;20268;-45
2022/04/07 00:25:39;;;;;;;2.00;1.13;;;9.40;99.90;;;;;;5077546;28;20211;-46
2022/04/07 00:28:05;;;;;;;2.30;1.10;;;9.40;99.90;;;;;;5077448;28;20204;-45
2022/04/07 00:30:31;;;;;;;1.30;0.87;;;9.40;99.90;;;;;;5077489;28;20180;-46
2022/04/07 00:32:56;;;;;;;3.10;1.10;;;9.40;99.90;;;;;;5077386;28;20607;-45
2022/04/07 00:35:25;;;;;;;1.80;0.90;;;9.40;99.90;;;;;;5077508;28;20653;-45
2022/04/07 00:37:50;;;;;;;2.17;1.10;;;9.40;99.90;;;;;;5077758;28;20180;-45
2022/04/07 00:40:17;;;;;;;2.70;1.23;;;9.40;99.90;;;;;;5077315;28;20253;-46
2022/04/07 00:42:47;;;;;;;1.30;1.00;;;9.40;99.90;;;;;;5077090;28;20206;-45
2022/04/07 00:45:14;;;;;;;2.13;0.80;;;9.40;99.90;;;;;;5077098;28;20217;-44
2022/04/07 00:47:40;;;;;;;2.80;1.00;;;9.40;99.90;;;;;;5077184;28;20172;-45
2022/04/07 00:50:06;;;;;;;2.70;1.27;;;9.40;99.90;;;;;;5076821;28;20234;-44
2022/04/07 00:52:32;;;;;;;0.50;0.50;;;9.50;99.90;;;;;;5076612;28;20541;-45
2022/04/07 00:54:59;;;;;;;1.87;0.80;;;9.40;99.90;;;;;;5077482;28;20524;-47
2022/04/07 00:57:25;;;;;;;4.10;1.00;;;9.50;99.90;;;;;;5076648;28;20207;-46
2022/04/07 00:59:51;;;;;;;0.73;0.63;;;9.50;99.90;;;;;;5076414;28;20202;-44
2022/04/07 01:02:17;;;;;;;2.07;0.90;;;9.50;99.90;;;;;;5076038;28;20228;-46
2022/04/07 01:04:43;;;;;;;2.37;1.10;;;9.40;99.90;;;;;;5076433;28;20175;-46
2022/04/07 01:07:08;;;;;;;2.20;0.87;;;9.40;99.90;;;;;;5075476;28;20234;-43
2022/04/07 01:09:34;;;;;;;4.43;1.10;;;9.40;99.90;;;;;;5076100;28;20176;-46
2022/04/07 01:12:00;;;;;;;3.40;1.07;;;9.30;99.90;;;;;;5075554;28;20210;-46
2022/04/07 01:14:26;;;;;;;5.23;1.20;;;9.20;99.90;;;;;;5075937;28;20179;-44
2022/04/07 01:16:52;;;;;;;1.87;1.17;;;9.30;99.90;;;;;;5075672;28;20199;-47
2022/04/07 01:19:18;;;;;;;3.17;1.23;;;9.30;99.90;;;;;;5075693;28;20199;-46
2022/04/07 01:21:44;;;;;;;3.20;0.90;;;9.30;99.90;;;;;;5075954;28;20179;-45
2022/04/07 01:24:11;;;;;;;3.33;1.27;;;9.30;99.90;;;;;;5075613;28;20228;-45
2022/04/07 01:26:38;;;;;;;2.80;0.87;;;9.30;99.90;;;;;;5075313;28;20682;-45
2022/04/07 01:29:08;;;;;;;2.23;1.30;;;9.30;99.90;;;;;;5075850;28;20656;-45
2022/04/07 01:31:35;;;;;;;0.80;0.63;;;9.40;99.90;;;;;;5075572;28;20178;-45
2022/04/07 01:34:03;;;;;;;2.27;1.37;;;9.40;99.90;;;;;;5075350;28;20268;-45
2022/04/07 01:36:31;;;;;;;1.00;0.90;;;9.50;99.90;;;;;;5076180;28;20656;-45
2022/04/07 01:38:58;;;;;;;1.60;0.93;;;9.50;99.90;;;;;;5075238;28;20206;-47
2022/04/07 01:41:25;;;;;;;2.47;1.20;;;9.50;99.90;;;;;;5075210;28;20195;-46
2022/04/07 01:43:51;;;;;;;3.20;1.00;;;9.60;99.90;;;;;;5075935;28;20179;-45
2022/04/07 01:46:19;;;;;;;2.23;1.20;;;9.60;99.90;;;;;;5076197;28;20187;-45
2022/04/07 01:48:46;;;;;;;3.17;1.20;;;9.60;99.90;;;;;;5075593;28;20667;-45
2022/04/07 01:51:12;;;;;;;2.73;1.00;;;9.60;99.90;;;;;;5075669;28;20241;-44
2022/04/07 01:53:39;;;;;;;1.90;1.00;;;9.60;99.90;;;;;;5075770;28;20187;-44
2022/04/07 01:56:06;;;;;;;1.80;1.03;;;9.60;99.90;;;;;;5075270;28;20214;-44
2022/04/07 01:58:32;;;;;;;4.30;1.57;;;9.60;99.90;;;;;;5074767;28;20187;-48
2022/04/07 02:00:58;;;;;;;3.40;0.97;;;9.70;99.90;;;;;;5075173;28;20655;-43
2022/04/07 02:03:24;;;;;;;1.50;1.10;;;9.70;99.90;;;;;;5074661;28;20183;-45
2022/04/07 02:05:49;;;;;;;5.53;1.00;;;9.60;99.90;;;;;;5074559;28;20673;-45
2022/04/07 02:08:15;;;;;;;1.10;0.80;;;9.60;99.90;;;;;;5074424;28;20202;-45
2022/04/07 02:10:41;;;;;;;1.37;0.90;;;9.60;99.90;;;;;;5074769;28;20541;-45
2022/04/07 02:13:07;;;;;;;0.90;0.80;;;9.60;99.90;;;;;;5074625;28;20183;-47
2022/04/07 02:15:32;;;;;;;1.57;0.93;;;9.60;99.90;;;;;;5074603;28;20294;-46
2022/04/07 02:17:58;;;;;;;1.77;0.83;;;9.60;99.90;;;;;;5074679;28;20176;-45
2022/04/07 02:20:24;;;;;;;2.13;1.00;;;9.60;99.90;;;;;;5074549;28;20725;-44
2022/04/07 02:22:50;;;;;;;3.40;1.33;;;9.70;99.90;;;;;;5074618;28;20198;-46
2022/04/07 02:25:15;;;;;;;4.80;1.10;;;9.70;99.90;;;;;;5075107;28;20178;-45
2022/04/07 02:27:42;;;;;;;1.60;0.90;;;9.70;99.90;;;;;;5075259;28;20205;-43
2022/04/07 02:30:10;;;;;;;0.90;0.90;;;9.70;99.90;;;;;;5075356;28;20251;-45
2022/04/07 02:32:36;;;;;;;0.83;0.70;;;9.70;99.90;;;;;;5074575;28;20179;-45
2022/04/07 02:35:02;;;;;;;1.00;0.87;;;9.70;99.90;;;;;;5074968;28;20167;-45
2022/04/07 02:37:28;;;;;;;2.27;0.77;;;9.70;99.90;;;;;;5074483;28;20223;-45
2022/04/07 02:39:55;;;;;;;2.13;1.00;;;9.70;99.90;;;;;;5074685;28;20292;-45
2022/04/07 02:42:21;;;;;;;2.67;0.80;;;9.60;99.90;;;;;;5074754;28;20715;-45
2022/04/07 02:44:46;;;;;;;0.80;0.70;;;9.70;99.90;;;;;;5075001;28;20211;-46
2022/04/07 02:47:12;;;;;;;0.97;0.50;;;9.60;99.90;;;;;;5075151;28;20678;-46
2022/04/07 02:49:41;;;;;;;2.20;0.70;;;9.60;99.90;;;;;;5075049;28;20184;-45
2022/04/07 02:52:08;;;;;;;3.47;1.03;;;9.60;99.90;;;;;;5073340;28;20190;-45
2022/04/07 02:54:34;;;;;;;2.87;0.97;;;9.60;99.90;;;;;;5075240;28;20191;-45
2022/04/07 02:57:00;;;;;;;1.23;0.90;;;9.60;99.90;;;;;;5074661;28;20203;-46
2022/04/07 02:59:26;;;;;;;2.83;1.13;;;9.60;99.90;;;;;;5075082;28;20199;-46
2022/04/07 03:01:53;;;;;;;2.17;0.90;;;9.60;99.90;;;;;;5075675;28;20652;-44
2022/04/07 03:04:18;;;;;;;3.73;1.20;;;9.70;99.90;;;;;;5075818;28;20175;-45
2022/04/07 03:06:45;;;;;;;4.63;1.07;;;9.70;99.90;;;;;;5075349;28;20192;-46
2022/04/07 03:09:10;;;;;;;4.43;1.10;;;9.70;99.90;;;;;;5090033;22;20227;-44
2022/04/07 03:11:36;;;;;;;2.70;1.23;;;9.70;99.90;;;;;;5057048;28;20161;-42
2022/04/07 03:14:01;;;;;;;1.93;0.77;;;9.70;99.90;;;;;;5057122;28;20183;-42
2022/04/07 03:16:27;;;;;;;4.20;0.77;;;9.80;99.90;;;;;;5067510;28;20205;-43
2022/04/07 03:18:53;;;;;;;3.80;0.93;;;9.70;99.90;;;;;;5077226;28;20210;-41
2022/04/07 03:21:18;;;;;;;1.10;0.90;;;9.70;99.90;;;;;;5077025;28;20178;-43
2022/04/07 03:23:44;;;;;;;5.30;0.90;;;9.80;99.90;;;;;;5076812;28;20194;-43
2022/04/07 03:26:10;;;;;;;1.40;0.50;;;9.80;99.90;;;;;;5076954;28;20196;-41
2022/04/07 03:28:36;;;;;;;3.10;0.80;;;9.70;99.90;;;;;;5076986;28;20175;-42
2022/04/07 03:31:02;;;;;;;2.70;1.17;;;9.70;99.90;;;;;;5076978;28;20648;-42
2022/04/07 03:33:27;;;;;;;2.33;0.80;;;9.70;99.90;;;;;;5076663;28;20175;-43
2022/04/07 03:35:53;;;;;;;4.97;1.07;;;9.70;99.90;;;;;;5077043;28;20656;-45
2022/04/07 03:38:19;;;;;;;2.00;0.70;;;9.70;99.90;;;;;;5076601;28;20225;-43
2022/04/07 03:40:45;;;;;;;2.90;1.20;;;9.60;99.90;;;;;;5076530;28;20603;-43
2022/04/07 03:43:10;;;;;;;1.07;0.77;;;9.60;99.90;;;;;;5077016;28;20175;-43
2022/04/07 03:45:36;;;;;;;2.77;1.20;;;9.60;99.90;;;;;;5076481;28;20205;-45
2022/04/07 03:48:01;;;;;;;3.33;1.20;;;9.60;99.90;;;;;;5076735;28;20171;-45
2022/04/07 03:50:27;;;;;;;2.00;0.70;;;9.60;99.90;;;;;;5076391;28;20617;-45
2022/04/07 03:52:53;;;;;;;1.47;0.90;;;9.60;99.90;;;;;;5076627;28;20182;-44
2022/04/07 03:55:20;;;;;;;3.00;0.97;;;9.60;99.90;;;;;;5076487;28;20179;-44
2022/04/07 03:57:46;;;;;;;3.10;1.00;;;9.60;99.90;;;;;;5075018;28;20172;-42
2022/04/07 04:00:12;;;;;;;0.90;0.67;;;9.60;99.90;;;;;;5076233;28;20257;-44
2022/04/07 04:02:38;;;;;;;2.80;0.93;;;9.70;99.90;;;;;;5075215;28;20210;-42
2022/04/07 04:05:03;;;;;;;1.60;0.80;;;9.70;99.90;;;;;;5075991;28;20211;-42
2022/04/07 04:07:29;;;;;;;2.80;0.93;;;9.70;99.90;;;;;;5075920;28;20195;-40
2022/04/07 04:09:55;;;;;;;3.43;0.80;;;9.70;99.90;;;;;;5076086;28;20219;-42
2022/04/07 04:12:20;;;;;;;2.17;1.10;;;9.70;99.90;;;;;;5075887;28;20229;-43
2022/04/07 04:14:46;;;;;;;3.23;0.87;;;9.70;99.90;;;;;;5075867;28;20660;-42
2022/04/07 04:17:11;;;;;;;3.00;0.90;;;9.70;99.90;;;;;;5075742;28;20195;-42
2022/04/07 04:19:37;;;;;;;2.03;0.90;;;9.70;99.90;;;;;;5075452;28;20203;-42
2022/04/07 04:22:03;;;;;;;1.07;0.83;;;9.60;99.90;;;;;;5075828;28;20195;-42
2022/04/07 04:24:28;;;;;;;0.87;0.67;;;9.70;99.90;;;;;;5075913;28;20263;-42
2022/04/07 04:26:54;;;;;;;1.33;0.70;;;9.70;99.90;;;;;;5075585;28;20538;-42
2022/04/07 04:29:20;;;;;;;2.43;0.90;;;9.60;99.90;;;;;;5075896;28;20206;-44
2022/04/07 04:31:45;;;;;;;2.57;0.90;;;9.70;99.90;;;;;;5075560;28;20633;-42
2022/04/07 04:34:11;;;;;;;0.47;0.47;;;9.70;99.90;;;;;;5075467;28;20203;-43
2022/04/07 04:36:36;;;;;;;0.93;0.80;;;9.70;99.90;;;;;;5075698;28;20294;-44
2022/04/07 04:39:02;;;;;;;1.00;0.90;;;9.70;99.90;;;;;;5075403;28;20207;-45
2022/04/07 04:41:28;;;;;;;2.70;0.97;;;9.80;99.90;;;;;;5075352;28;20168;-43
2022/04/07 04:43:54;;;;;;;0.60;0.60;;;9.70;99.90;;;;;;5075358;28;20175;-42
2022/04/07 04:46:20;;;;;;;0.87;0.87;;;9.80;99.90;;;;;;5075596;28;20192;-43
2022/04/07 04:48:45;;;;;;;2.33;1.00;;;9.70;99.90;;;;;;5075529;28;20578;-40
2022/04/07 04:51:11;;;;;;;0.80;0.80;;;9.70;99.90;;;;;;5075265;28;20199;-42
2022/04/07 04:53:37;;;;;;;4.13;0.80;;;9.80;99.90;;;;;;5075179;28;20549;-43
2022/04/07 04:56:02;;;;;;;2.70;0.80;;;9.70;99.90;;;;;;5075065;28;20284;-43
2022/04/07 04:58:28;;;;;;;1.43;0.77;;;9.70;99.90;;;;;;5075021;28;20204;-43
2022/04/07 05:00:54;;;;;;;6.33;0.70;;;9.70;99.90;;;;;;5074994;28;20172;-43
2022/04/07 05:03:19;;;;;;;0.93;0.77;;;9.70;99.90;;;;;;5075049;28;20168;-42
2022/04/07 05:05:45;;;;;;;2.60;0.83;;;9.60;99.90;;;;;;5075114;28;20287;-42
2022/04/07 05:08:10;;;;;;;1.50;0.83;;;9.70;99.90;;;;;;5075803;28;20637;-42
2022/04/07 05:10:37;;;;;;;0.70;0.63;;;9.60;99.90;;;;;;5074626;28;20183;-42
2022/04/07 05:13:02;;;;;;;0.53;0.53;;;9.60;99.90;;;;;;5074711;28;20645;-42
2022/04/07 05:15:29;;;;;;;1.13;0.50;;;9.60;99.90;;;;;;5074853;28;20334;-44
2022/04/07 05:17:54;;;;;;;0.77;0.40;;;9.60;99.90;;;;;;5074668;28;20258;-43
2022/04/07 05:20:21;;;;;;;2.20;0.70;;;9.60;99.90;;;;;;5075137;28;20207;-42
2022/04/07 05:22:47;;;;;;;3.57;0.60;;;9.60;99.90;;;;;;5075601;28;20184;-42
2022/04/07 05:25:13;;;;;;;0.50;0.50;;;9.60;99.90;;;;;;5074711;28;20233;-43
2022/04/07 05:27:39;;;;;;;0.83;0.53;;;9.60;99.90;;;;;;5074463;28;20648;-44
2022/04/07 05:30:15;;;;;;;1.50;0.53;;;9.60;99.90;;;;;;5074015;28;20214;-43
2022/04/07 05:32:44;;;;;;;1.00;0.80;;;9.60;99.90;;;;;;5074535;28;20159;-44
2022/04/07 05:35:12;;;;;;;0.90;0.67;;;9.60;99.90;;;;;;5074608;28;20636;-42
2022/04/07 05:37:38;;;;;;;1.80;0.73;;;9.60;99.90;;;;;;5074249;28;20175;-42
2022/04/07 05:40:05;;;;;;;1.07;0.70;;;9.60;99.90;;;;;;5074222;28;20218;-42
2022/04/07 05:42:31;;;;;;;4.03;0.87;;;9.60;99.90;;;;;;5074537;28;20172;-43
2022/04/07 05:44:56;;;;;;;0.67;0.57;;;9.70;99.90;;;;;;5074492;28;20199;-41
2022/04/07 05:47:22;;;;;;;2.10;1.10;;;9.60;99.90;;;;;;5074286;28;20619;-42
2022/04/07 05:49:48;;;;;;;0.63;0.60;;;9.60;99.90;;;;;;5074003;28;20228;-42
2022/04/07 05:52:14;;;;;;;8.53;0.87;;;9.60;99.90;;;;;;5074046;28;20552;-42
2022/04/07 05:54:39;;;;;;;2.47;0.90;;;9.60;99.90;;;;;;5073914;28;20215;-42
2022/04/07 05:57:06;;;;;;;1.27;0.70;;;9.60;99.90;;;;;;5074171;28;20203;-41
2022/04/07 05:59:31;;;;;;;5.50;0.60;;;9.60;99.90;;;;;;5073766;28;20203;-44
2022/04/07 06:01:57;;;;;;;1.50;0.53;;;9.50;99.90;;;;;;5074054;28;20329;-42
2022/04/07 06:04:23;;;;;;;1.13;0.60;;;9.50;99.90;;;;;;5074088;28;20175;-43
2022/04/07 06:06:48;;;;;;;0.60;0.40;;;9.50;99.90;;;;;;5074330;28;20539;-44
2022/04/07 06:09:14;;;;;;;2.27;0.83;;;9.50;99.90;;;;;;5073509;28;20199;-43
2022/04/07 06:11:40;;;;;;;1.10;0.60;;;9.50;99.90;;;;;;5073653;28;20211;-42
2022/04/07 06:14:06;;;;;;;1.70;0.53;;;9.40;99.90;;;;;;5073759;28;20264;-43
2022/04/07 06:16:31;;;;;;;0.30;0.30;;;9.40;99.90;;;;;;5073551;28;20194;-42
2022/04/07 06:18:57;;;;;;;1.13;0.80;;;9.40;99.90;;;;;;5073477;28;20217;-44
2022/04/07 06:21:23;;;;;;;2.60;1.00;;;9.40;99.90;;;;;;5073643;28;20201;-41
2022/04/07 06:23:50;;;;;;;2.00;0.50;;;9.40;99.90;;;;;;5073940;28;20533;-40
2022/04/07 06:26:18;;;;;;;0.50;0.50;;;9.40;99.90;;;;;;5073877;28;20261;-42
2022/04/07 06:28:44;;;;;;;3.53;0.57;;;9.40;99.90;;;;;;5074471;28;20540;-41
2022/04/07 06:31:09;;;;;;;1.20;0.40;;;9.50;99.90;;;;;;5074163;28;20226;-43
2022/04/07 06:33:35;;;;;;;0.80;0.57;;;9.50;99.90;;;;;;5073962;28;20186;-43
2022/04/07 06:36:03;;;;;;;1.33;0.60;;;9.50;99.90;;;;;;5073407;28;20211;-42
2022/04/07 06:38:30;;;;;;;1.33;0.50;;;9.50;99.90;;;;;;5073774;28;20271;-41
2022/04/07 06:40:56;;;;;;;0.40;0.40;;;9.60;99.90;;;;;;5072334;28;20183;-41
2022/04/07 06:43:22;;;;;;;3.50;0.50;;;9.70;99.90;;;;;;5073912;28;20668;-49
2022/04/07 06:45:48;;;;;;;0.40;0.40;;;9.70;99.90;;;;;;5074012;28;20200;-46
2022/04/07 06:48:13;;;;;;;0.30;0.30;;;9.70;99.90;;;;;;5073467;28;20179;-47
2022/04/07 06:50:40;;;;;;;1.80;0.60;;;9.70;99.90;;;;;;5073826;28;20203;-46
2022/04/07 06:53:06;;;;;;;1.53;0.57;;;9.80;99.90;;;;;;5073406;28;20190;-47
2022/04/07 06:55:32;;;;;;;0.43;0.43;;;9.80;99.90;;;;;;5073464;28;20195;-48
2022/04/07 06:58:06;;;;;;;0.57;0.50;;;9.90;99.90;;;;;;5073540;28;20254;-47
2022/04/07 07:00:41;;;;;;;1.23;0.33;;;10.00;99.90;;;;;;5073561;28;20495;-47
2022/04/07 07:03:07;;;;;;;0.67;0.30;;;9.90;99.90;;;;;;5073359;28;20182;-46
2022/04/07 07:05:35;;;;;;;0.40;0.40;;;10.00;99.90;;;;;;5073557;28;20283;-46
2022/04/07 07:08:14;;;;;;;0.60;0.40;;;10.10;99.90;;;;;;5074409;28;20183;-47
2022/04/07 07:10:41;;;;;;;1.50;0.57;;;10.10;99.90;;;;;;5073380;28;20194;-47
2022/04/07 07:13:07;;;;;;;0.67;0.40;;;10.10;99.90;;;;;;5073203;28;20179;-47
2022/04/07 07:15:33;;;;;;;0.40;0.40;;;10.10;99.90;;;;;;5073404;28;20199;-47
2022/04/07 07:17:59;;;;;;;0.43;0.40;;;10.20;99.90;;;;;;5073180;28;20237;-48
2022/04/07 07:20:24;;;;;;;0.40;0.30;;;10.20;99.90;;;;;;5073159;28;20207;-47
2022/04/07 07:22:50;;;;;;;0.90;0.47;;;10.20;99.90;;;;;;5072905;28;20254;-49
2022/04/07 07:25:15;;;;;;;1.13;0.40;;;10.20;99.90;;;;;;5073356;28;20254;-47
2022/04/07 07:27:46;;;;;;;0.20;0.20;;;10.20;99.90;;;;;;5073123;28;20224;-47
2022/04/07 07:30:15;;;;;;;0.73;0.30;;;10.20;99.90;;;;;;5073158;28;20164;-48
2022/04/07 07:32:42;;;;;;;0.40;0.40;;;10.30;99.90;;;;;;5073091;28;20187;-46
2022/04/07 07:35:09;;;;;;;2.20;0.40;;;10.30;99.90;;;;;;5072791;28;20594;-46
2022/04/07 07:37:35;;;;;;;0.20;0.20;;;10.20;99.90;;;;;;5072930;28;20206;-48
2022/04/07 07:40:08;;;;;;;0.40;0.37;;;10.30;99.90;;;;;;5072688;28;20568;-47
2022/04/07 07:42:36;;;;;;;1.50;0.30;;;10.30;99.90;;;;;;5072916;28;20180;-48
2022/04/07 07:45:02;;;;;;;0.17;0.17;;;10.30;99.90;;;;;;5072971;28;20175;-48
2022/04/07 07:47:28;;;;;;;0.20;0.20;;;10.40;99.90;;;;;;5072519;28;20263;-48
2022/04/07 07:49:54;;;;;;;0.20;0.20;;;10.50;99.90;;;;;;5072632;28;20755;-48
2022/04/07 07:52:20;;;;;;;0.60;0.60;;;10.50;99.90;;;;;;5072860;28;20590;-50
2022/04/07 07:54:45;;;;;;;1.07;0.40;;;10.50;99.90;;;;;;5075927;28;20675;-49
2022/04/07 07:57:11;;;;;;;0.60;0.30;;;10.50;99.90;;;;;;5076171;28;20195;-46
2022/04/07 07:59:36;;;;;;;0.57;0.43;;;10.50;99.90;;;;;;5076367;28;20207;-47
2022/04/07 08:02:02;;;;;;;0.67;0.30;;;10.40;99.90;;;;;;5076152;28;20183;-49
2022/04/07 08:04:28;;;;;;;0.30;0.30;;;10.40;99.90;;;;;;5076076;28;20168;-47
2022/04/07 08:06:54;;;;;;;0.20;0.20;;;10.50;99.90;;;;;;5075969;28;20558;-49
2022/04/07 08:09:19;;;;;;;0.20;0.20;;;10.50;99.90;;;;;;5075919;28;20650;-47
2022/04/07 08:11:45;;;;;;;0.20;0.20;;;10.60;99.90;;;;;;5076280;28;20515;-49
2022/04/07 08:14:10;;;;;;;0.20;0.20;;;10.70;99.90;;;;;;5075969;28;20209;-47
2022/04/07 08:16:37;;;;;;;5.17;0.30;;;10.70;99.90;;;;;;5076054;28;20206;-49
2022/04/07 08:19:04;;;;;;;0.30;0.30;;;10.80;99.90;;;;;;5075959;28;20210;-48
2022/04/07 08:21:30;;;;;;;0.73;0.30;;;10.90;99.90;;;;;;5075798;28;20250;-49
2022/04/07 08:23:56;;;;;;;0.20;0.20;;;11.10;99.90;;;;;;5075851;28;20171;-50
2022/04/07 08:26:22;;;;;;;0.30;0.30;;;11.20;99.90;;;;;;5075586;28;20199;-49
2022/04/07 08:28:47;;;;;;;0.20;0.20;;;11.30;99.90;;;;;;5075965;28;20176;-48
2022/04/07 08:31:13;;;;;;;0.20;0.20;;;11.30;99.90;;;;;;5075602;28;20513;-48
2022/04/07 08:33:38;;;;;;;0.40;0.30;;;11.30;99.90;;;;;;5075533;28;20176;-49
2022/04/07 08:36:05;;;;;;;0.53;0.20;;;11.20;99.90;;;;;;5075757;28;20196;-47
2022/04/07 08:38:30;;;;;;;0.30;0.30;;;11.20;99.90;;;;;;5075524;28;20178;-47
2022/04/07 08:40:56;;;;;;;0.20;0.20;;;11.10;99.90;;;;;;5075776;28;20254;-49
2022/04/07 08:43:25;;;;;;;0.77;0.30;;;11.10;99.90;;;;;;5075790;28;20234;-48
2022/04/07 08:45:51;;;;;;;0.20;0.20;;;11.20;99.90;;;;;;5075350;28;20672;-50
2022/04/07 08:48:17;;;;;;;0.43;0.40;;;11.30;99.90;;;;;;5075894;28;20263;-47
2022/04/07 08:50:44;;;;;;;0.57;0.30;;;11.30;99.90;;;;;;5075619;28;20180;-47
2022/04/07 08:53:10;;;;;;;0.20;0.20;;;11.40;99.90;;;;;;5075451;28;20605;-47
2022/04/07 08:55:37;;;;;;;0.90;0.20;;;11.40;99.90;;;;;;5076814;28;20207;-51
2022/04/07 08:58:03;;;;;;;0.40;0.30;;;11.60;99.90;;;;;;5075532;28;20176;-50
2022/04/07 09:00:28;;;;;;;0.20;0.20;;;11.60;99.90;;;;;;5075102;28;20211;-47
2022/04/07 09:02:55;;;;;;;0.30;0.30;;;11.70;99.90;;;;;;5075107;28;20206;-47
2022/04/07 09:05:25;;;;;;;0.30;0.30;;;11.80;99.90;;;;;;5074096;28;20318;-49
2022/04/07 09:07:55;;;;;;;0.27;0.27;;;12.00;99.90;;;;;;5074918;28;20678;-48
2022/04/07 09:10:22;;;;;;;0.20;0.20;;;12.00;99.90;;;;;;5074807;28;20663;-46
2022/04/07 09:12:49;;;;;;;0.20;0.20;;;11.80;99.90;;;;;;5074816;28;20197;-48
2022/04/07 09:15:15;;;;;;;0.40;0.30;;;11.80;99.90;;;;;;5074721;28;20185;-49
2022/04/07 09:17:52;;;;;;;0.27;0.27;;;11.90;99.90;;;;;;5075026;28;20239;-47
2022/04/07 09:20:18;;;;;;;0.80;0.30;;;12.00;99.90;;;;;;5074813;28;20202;-49
2022/04/07 09:22:44;;;;;;;0.23;0.23;;;12.00;99.90;;;;;;5074600;28;20602;-49
2022/04/07 09:25:12;;;;;;;0.20;0.20;;;11.90;99.90;;;;;;5074843;28;20185;-47
2022/04/07 09:27:41;;;;;;;1.47;0.37;;;11.90;99.90;;;;;;5074805;28;20189;-46
2022/04/07 09:30:12;;;;;;;0.37;0.20;;;11.80;99.90;;;;;;5074389;28;20710;-47
2022/04/07 09:32:44;;;;;;;0.30;0.30;;;11.80;99.90;;;;;;5074578;28;20169;-46
2022/04/07 09:35:11;;;;;;;0.67;0.30;;;11.70;99.90;;;;;;5074573;28;20193;-46
2022/04/07 09:37:39;;;;;;;5.90;0.50;;;11.60;99.90;;;;;;5074290;28;20355;-46
2022/04/07 09:40:09;;;;;;;0.47;0.40;;;11.50;99.90;;;;;;5074487;28;20209;-46
2022/04/07 09:42:35;;;;;;;0.70;0.30;;;11.50;99.90;;;;;;5074723;28;20256;-47
2022/04/07 09:45:02;;;;;;;1.60;0.70;;;11.40;99.90;;;;;;5074469;28;20188;-47
2022/04/07 09:47:43;;;;;;;0.30;0.30;;;11.40;99.90;;;;;;5074005;28;20199;-45
2022/04/07 09:50:31;;;;;;;0.30;0.30;;;11.40;99.90;;;;;;5074253;28;20171;-46
2022/04/07 09:53:02;;;;;;;2.73;0.40;;;11.30;99.90;;;;;;5074373;28;20198;-46
2022/04/07 09:55:36;;;;;;;0.57;0.37;;;11.30;99.90;;;;;;5074555;28;20249;-47
2022/04/07 09:58:04;;;;;;;1.67;0.50;;;11.20;99.90;;;;;;5074424;28;20163;-47
2022/04/07 10:00:31;;;;;;;0.37;0.30;;;11.20;99.90;;;;;;5074250;28;20663;-45
2022/04/07 10:02:57;;;;;;;0.60;0.30;;;11.20;99.90;;;;;;5072751;28;20176;-47
2022/04/07 10:05:23;;;;;;;0.97;0.40;;;11.20;99.90;;;;;;5074093;28;20240;-48
2022/04/07 10:07:50;;;;;;;0.43;0.40;;;11.20;99.90;;;;;;5072733;28;20232;-46
2022/04/07 10:10:19;;;;;;;1.70;0.50;;;11.20;99.90;;;;;;5073992;28;20576;-47
2022/04/07 10:12:46;;;;;;;0.60;0.40;;;11.30;99.90;;;;;;5073909;28;20181;-48
2022/04/07 10:15:11;;;;;;;0.83;0.40;;;11.30;99.90;;;;;;5074223;28;20184;-46
2022/04/07 10:17:38;;;;;;;0.47;0.47;;;11.30;99.90;;;;;;5072410;28;20189;-46
2022/04/07 10:20:10;;;;;;;0.67;0.50;;;11.30;99.90;;;;;;5073744;28;20203;-46
2022/04/07 10:23:17;;;;;;;0.47;0.33;;;11.30;99.90;;;;;;5073836;28;20237;-47
2022/04/07 10:25:45;;;;;;;0.37;0.37;;;11.30;99.90;;;;;;5074137;28;20208;-47
2022/04/07 10:28:11;;;;;;;0.67;0.50;;;11.50;99.90;;;;;;5073942;28;20172;-47
2022/04/07 10:30:54;;;;;;;0.37;0.37;;;11.60;99.90;;;;;;5072886;28;20284;-47
2022/04/07 10:33:38;;;;;;;0.87;0.40;;;11.60;99.90;;;;;;5073840;28;20161;-47
2022/04/07 10:36:18;;;;;;;0.40;0.40;;;11.70;99.90;;;;;;5073959;28;20224;-48
2022/04/07 10:38:47;;;;;;;1.50;0.40;;;11.70;99.90;;;;;;5073957;28;20288;-48
2022/04/07 10:41:38;;;;;;;0.80;0.50;;;11.60;99.90;;;;;;5073992;28;20185;-48
2022/04/07 10:44:10;;;;;;;1.43;0.30;;;11.50;99.90;;;;;;5073820;28;20170;-48
2022/04/07 10:46:36;;;;;;;0.73;0.30;;;11.50;99.90;;;;;;5073804;28;20206;-47
2022/04/07 10:49:09;;;;;;;0.47;0.30;;;11.50;99.90;;;;;;5073697;28;20185;-47
2022/04/07 10:51:52;;;;;;;0.30;0.30;;;11.60;99.90;;;;;;5073725;28;20188;-48
2022/04/07 10:54:18;;;;;;;0.97;0.40;;;11.70;99.90;;;;;;5073780;28;20647;-47
2022/04/07 10:56:49;;;;;;;0.80;0.40;;;11.80;99.90;;;;;;5072105;28;20210;-47
2022/04/07 10:59:17;;;;;;;0.20;0.20;;;12.00;99.90;;;;;;5073733;28;20213;-49
2022/04/07 11:01:43;;;;;;;0.40;0.40;;;12.10;99.90;;;;;;5073994;28;20190;-49
2022/04/07 11:04:20;;;;;;;0.30;0.30;;;12.20;99.90;;;;;;5074575;28;20177;-48
2022/04/07 11:07:04;;;;;;;1.03;0.30;;;12.30;99.90;;;;;;5073333;28;20205;-47
2022/04/07 11:09:57;;;;;;;0.50;0.20;;;12.30;99.90;;;;;;5073131;28;20199;-48
2022/04/07 11:12:22;;;;;;;0.27;0.27;;;12.40;99.90;;;;;;5073482;28;20528;-48
2022/04/07 11:14:50;;;;;;;1.13;0.30;;;12.50;99.90;;;;;;5073728;28;20217;-47
2022/04/07 11:17:32;;;;;;;1.10;0.30;;;12.60;99.90;;;;;;5073261;28;20198;-49
2022/04/07 11:20:10;;;;;;;0.97;0.37;;;12.60;99.90;;;;;;5073517;28;20207;-48
2022/04/07 11:22:51;;;;;;;0.87;0.40;;;12.70;99.90;;;;;;5073747;28;20195;-48
2022/04/07 11:25:21;;;;;;;0.63;0.33;;;12.80;99.90;;;;;;5073758;28;20168;-48
2022/04/07 11:28:14;;;;;;;0.60;0.50;;;12.90;99.90;;;;;;5073539;28;20652;-48
2022/04/07 11:30:49;;;;;;;0.33;0.33;;;12.90;99.90;;;;;;5077397;28;20168;-48
2022/04/07 11:33:27;;;;;;;1.10;0.30;;;13.00;99.90;;;;;;5076878;28;20209;-51
2022/04/07 11:35:58;;;;;;;1.40;0.43;;;13.10;99.90;;;;;;5077446;28;20195;-49
2022/04/07 11:38:37;;;;;;;0.37;0.33;;;13.20;99.90;;;;;;5076606;28;20175;-50
2022/04/07 11:41:14;;;;;;;1.07;0.53;;;13.30;99.90;;;;;;5076710;28;20168;-51
2022/04/07 11:43:48;;;;;;;1.23;0.40;;;13.40;99.90;;;;;;5076995;28;20159;-50
2022/04/07 11:46:23;;;;;;;1.80;0.30;;;13.50;99.90;;;;;;5076805;28;20190;-50
2022/04/07 11:48:50;;;;;;;0.90;0.30;;;13.70;99.90;;;;;;5076574;28;20170;-50
2022/04/07 11:51:18;;;;;;;2.40;0.60;;;13.80;99.90;;;;;;5076620;28;20207;-49
2022/04/07 11:53:54;;;;;;;0.50;0.50;;;13.90;99.90;;;;;;5076503;28;20212;-49
2022/04/07 11:56:26;;;;;;;1.97;0.50;;;13.90;99.90;;;;;;5076772;28;20209;-51
2022/04/07 11:59:03;;;;;;;1.17;0.50;;;13.90;99.90;;;;;;5076655;28;20202;-50
2022/04/07 12:01:29;;;;;;;2.93;0.70;;;13.90;99.90;;;;;;5076323;28;20174;-48
2022/04/07 12:04:01;;;;;;;2.43;1.00;;;13.90;99.90;;;;;;5077014;28;20180;-48
2022/04/07 12:06:29;;;;;;;0.60;0.47;;;13.80;99.90;;;;;;5076392;28;20378;-47
2022/04/07 12:08:55;;;;;;;4.63;0.87;;;13.90;99.90;;;;;;5075981;28;20179;-49
2022/04/07 12:11:22;;;;;;;1.27;0.37;;;13.90;99.90;;;;;;5076324;28;20255;-49
2022/04/07 12:13:50;;;;;;;3.03;0.67;;;13.90;99.90;;;;;;5076331;28;20187;-50
2022/04/07 12:16:15;;;;;;;1.47;0.73;;;13.90;99.90;;;;;;5076237;28;20215;-47
2022/04/07 12:18:41;;;;;;;0.73;0.30;;;13.90;99.90;;;;;;5076327;28;20207;-50
2022/04/07 12:21:09;;;;;;;8.63;0.87;;;13.80;99.90;;;;;;5076030;28;20179;-49
2022/04/07 12:23:37;;;;;;;0.83;0.50;;;13.80;99.90;;;;;;5075708;28;20172;-50
2022/04/07 12:26:03;;;;;;;4.60;0.90;;;13.70;99.90;;;;;;5075572;28;20192;-47
2022/04/07 12:28:40;;;;;;;3.40;0.70;;;13.70;99.90;;;;;;5075646;28;20702;-49
2022/04/07 12:31:20;;;;;;;0.50;0.40;;;13.60;99.90;;;;;;5075843;28;20166;-49
2022/04/07 12:33:47;;;;;;;5.07;0.93;;;13.60;99.90;;;;;;5074810;28;20210;-50
2022/04/07 12:36:36;;;;;;;2.70;1.00;;;13.70;99.90;;;;;;5075351;28;20238;-50
2022/04/07 12:39:12;;;;;;;4.23;0.67;;;13.70;99.90;;;;;;5072144;28;20262;-48
2022/04/07 12:41:44;;;;;;;2.97;0.80;;;13.80;99.90;;;;;;5075723;28;20174;-50
2022/04/07 12:44:39;;;;;;;2.07;0.83;;;13.80;99.90;;;;;;5075567;28;20187;-48
2022/04/07 12:47:14;;;;;;;4.00;1.17;;;13.90;99.90;;;;;;5062374;28;20752;-48
2022/04/07 12:49:40;;;;;;;1.47;0.60;;;14.00;99.90;;;;;;5075518;28;20555;-49
2022/04/07 12:52:14;;;;;;;6.47;1.17;;;14.00;99.90;;;;;;5075225;28;20183;-49
2022/04/07 12:55:07;;;;;;;9.17;0.70;;;14.00;99.90;;;;;;5075570;28;20641;-49
2022/04/07 12:57:40;;;;;;;2.47;1.00;;;13.90;99.90;;;;;;5075590;28;20198;-49